KHKA/HKA METAR and TAF weather

Enter ICAO airport designator
Station Type Date Time Source
KHKA METAR 2018/12/13 06:09 UTC NOAA

KHKA 130609Z AUTO 17008KT 5SM -RA SCT028 OVC035 08/04 A3002 RMK AO2 RAB0558 P0000 T00830039 $


Station Type Date Time Source
KHKA Decoded METAR 2018/12/13 06:09 UTC NOAA

BLYTHEVILLE MUNICIPAL AIRPORT , AR, United States (KHKA) 35-56N 89-50W 78M
Dec 13, 2018 - 01:09 AM EST / 2018.12.13 0609 UTC
Wind: from the S (170 degrees) at 9 MPH (8 KT):0
Visibility: 5 mile(s):0
Sky conditions: overcast
Weather: light rain
Precipitation last hour: A trace
Temperature: 46.9 F (8.3 C)
Dew Point: 39.0 F (3.9 C)
Relative Humidity: 73%
Pressure (altimeter): 30.02 in. Hg (1016 hPa)
ob: KHKA 130609Z AUTO 17008KT 5SM -RA SCT028 OVC035 08/04 A3002 RMK AO2 RAB0558 P0000 T00830039
cycle: 6

Station Type Date Time Source
KHKA TAF UTC NOAA

Error!


Example: see airport list